Time;durP1;ratioP1;P1;durP2;ratioP2;P2;SDS_P1;SDS_P2;PMS_P1;PMS_P2;Temp;Humidity;BMP_temperature;BMP_pressure;BME280_temperature;BME280_humidity;BME280_pressure;Samples;Min_cycle;Max_cycle;Signal;HPM_P1;HPM_P2
2021/11/01 00:00:17;;;;;;;64.75;42.33;;;;;;;1.46;100.00;98527.41;2079812;28;20238;-75
2021/11/01 00:01:20;;;;;;;76.35;44.20;;;;;;;1.46;100.00;98526.63;2071982;28;20235;-74
2021/11/01 00:02:21;;;;;;;67.43;41.95;;;;;;;1.44;100.00;98529.50;2075854;28;20219;-74
2021/11/01 00:03:23;;;;;;;69.67;43.80;;;;;;;1.47;100.00;98536.88;2083402;28;20223;-76
2021/11/01 00:04:24;;;;;;;65.05;42.20;;;;;;;1.46;100.00;98529.25;2079431;28;20467;-75
2021/11/01 00:05:26;;;;;;;66.40;44.23;;;;;;;1.47;100.00;98528.97;2079723;28;20219;-74
2021/11/01 00:06:26;;;;;;;73.80;44.95;;;;;;;1.49;100.00;98531.38;2080470;28;20715;-74
2021/11/01 00:07:29;;;;;;;70.70;44.22;;;;;;;1.51;100.00;98531.94;2079605;28;20231;-75
2021/11/01 00:08:33;;;;;;;66.93;42.92;;;;;;;1.52;100.00;98530.88;2079823;28;20234;-74
2021/11/01 00:09:34;;;;;;;62.72;40.58;;;;;;;1.50;100.00;98533.75;2079650;28;20227;-74
2021/11/01 00:10:37;;;;;;;67.30;42.90;;;;;;;1.47;100.00;98536.09;2071546;28;20266;-74
2021/11/01 00:11:39;;;;;;;67.78;42.83;;;;;;;1.44;100.00;98521.59;2079309;28;20234;-74
2021/11/01 00:12:40;;;;;;;67.65;43.78;;;;;;;1.41;100.00;98530.00;2080420;28;20670;-74
2021/11/01 00:13:42;;;;;;;69.68;43.05;;;;;;;1.41;100.00;98524.75;2079579;28;20644;-75
2021/11/01 00:14:43;;;;;;;66.22;43.05;;;;;;;1.43;100.00;98533.16;2079790;28;20219;-75
2021/11/01 00:15:45;;;;;;;67.43;42.92;;;;;;;1.42;100.00;98528.97;2079703;28;20269;-74
2021/11/01 00:16:45;;;;;;;73.13;42.33;;;;;;;1.42;100.00;98529.75;2079798;28;20230;-74
2021/11/01 00:17:47;;;;;;;60.17;39.23;;;;;;;1.41;100.00;98532.63;2080328;28;20223;-74
2021/11/01 00:18:48;;;;;;;71.10;42.60;;;;;;;1.37;100.00;98528.91;2080308;28;20227;-75
2021/11/01 00:19:50;;;;;;;72.60;43.30;;;;;;;1.36;100.00;98522.06;2087786;28;20720;-74
2021/11/01 00:20:51;;;;;;;62.97;40.78;;;;;;;1.29;100.00;98516.22;2087669;28;20219;-74
2021/11/01 00:21:52;;;;;;;71.82;41.58;;;;;;;1.28;100.00;98520.66;2087264;28;20226;-75
2021/11/01 00:22:56;;;;;;;67.43;42.45;;;;;;;1.27;100.00;98526.19;2087850;28;20222;-75
2021/11/01 00:23:57;;;;;;;74.25;43.72;;;;;;;1.24;100.00;98521.44;2088678;28;20243;-74
2021/11/01 00:25:00;;;;;;;68.03;44.23;;;;;;;1.21;100.00;98511.41;2088559;28;20223;-75
2021/11/01 00:26:03;;;;;;;67.53;43.05;;;;;;;1.22;100.00;98520.91;2095852;28;20233;-75
2021/11/01 00:27:04;;;;;;;66.75;41.90;;;;;;;1.19;100.00;98513.50;2087804;28;20218;-74
2021/11/01 00:28:08;;;;;;;67.40;43.47;;;;;;;1.16;100.00;98519.25;2087917;28;20222;-74
2021/11/01 00:29:11;;;;;;;76.47;45.55;;;;;;;1.20;100.00;98522.94;2088388;28;20246;-75
2021/11/01 00:30:15;;;;;;;77.97;44.45;;;;;;;1.24;100.00;98514.34;2088614;28;20222;-74
2021/11/01 00:31:16;;;;;;;76.53;45.65;;;;;;;1.36;100.00;98519.44;2087869;28;20239;-74
2021/11/01 00:32:18;;;;;;;79.77;46.10;;;;;;;1.42;100.00;98513.97;2087892;28;20272;-75
2021/11/01 00:33:20;;;;;;;71.88;44.95;;;;;;;1.45;100.00;98504.78;2088481;28;20245;-74
2021/11/01 00:34:21;;;;;;;81.53;46.65;;;;;;;1.48;100.00;98512.19;2088655;28;20219;-74
2021/11/01 00:35:25;;;;;;;76.60;46.43;;;;;;;1.57;100.00;98515.16;2079209;28;20725;-77
2021/11/01 00:36:26;;;;;;;70.60;44.65;;;;;;;1.61;100.00;98524.13;2079726;28;20659;-74
2021/11/01 00:37:28;;;;;;;62.57;42.33;;;;;;;1.58;100.00;98514.91;2079587;28;20239;-75
2021/11/01 00:38:29;;;;;;;71.60;43.17;;;;;;;1.55;100.00;98511.97;2079390;28;20306;-75
2021/11/01 00:39:31;;;;;;;64.40;41.60;;;;;;;1.53;100.00;98521.94;2071428;28;20231;-75
2021/11/01 00:40:31;;;;;;;68.43;43.20;;;;;;;1.49;100.00;98513.00;2079517;28;20227;-75
2021/11/01 00:41:35;;;;;;;65.80;41.87;;;;;;;1.45;100.00;98510.06;2080335;28;20243;-74
2021/11/01 00:42:38;;;;;;;64.28;40.90;;;;;;;1.43;100.00;98506.88;2080387;28;20564;-74
2021/11/01 00:43:39;;;;;;;61.33;40.97;;;;;;;1.40;100.00;98513.44;2078904;28;20238;-74
2021/11/01 00:44:40;;;;;;;72.60;42.42;;;;;;;1.44;100.00;98518.19;2079514;28;20235;-74
2021/11/01 00:45:42;;;;;;;70.63;43.63;;;;;;;1.47;100.00;98507.97;2080069;28;20306;-75
2021/11/01 00:46:43;;;;;;;72.40;45.42;;;;;;;1.54;100.00;98505.91;2079472;28;20293;-75
2021/11/01 00:47:44;;;;;;;76.43;45.53;;;;;;;1.62;100.00;98510.72;2079671;28;20227;-74
2021/11/01 00:48:45;;;;;;;72.50;44.22;;;;;;;1.75;100.00;98511.34;2080331;28;20673;-74
2021/11/01 00:49:49;;;;;;;76.97;45.47;;;;;;;1.75;100.00;98506.88;2080311;28;20636;-74
2021/11/01 00:50:50;;;;;;;76.00;45.92;;;;;;;1.73;100.00;98503.69;2080334;28;20227;-74
2021/11/01 00:51:54;;;;;;;72.43;45.20;;;;;;;1.74;100.00;98513.19;2079410;28;20219;-75
2021/11/01 00:52:55;;;;;;;71.00;44.45;;;;;;;1.74;100.00;98507.13;2080780;28;20231;-74
2021/11/01 00:53:57;;;;;;;72.05;44.20;;;;;;;1.72;100.00;98509.22;2080268;28;20227;-74
2021/11/01 00:55:00;;;;;;;70.70;43.88;;;;;;;1.71;100.00;98503.16;2079100;28;20227;-75
2021/11/01 00:56:03;;;;;;;73.28;46.15;;;;;;;1.72;100.00;98501.31;2079644;28;20223;-75
2021/11/01 00:57:05;;;;;;;76.18;44.92;;;;;;;1.75;100.00;98504.25;2079490;28;20280;-74
2021/11/01 00:58:07;;;;;;;76.82;44.95;;;;;;;1.74;100.00;98500.03;2071237;28;20228;-74
2021/11/01 00:59:08;;;;;;;78.70;45.28;;;;;;;1.76;100.00;98502.41;2070991;28;20722;-75
2021/11/01 01:00:11;;;;;;;73.07;43.50;;;;;;;1.72;100.00;98499.47;2079557;28;20671;-74
2021/11/01 01:01:14;;;;;;;73.15;44.50;;;;;;;1.72;100.00;98503.94;2079389;28;20223;-75
2021/11/01 01:02:16;;;;;;;71.10;43.75;;;;;;;1.68;100.00;98501.84;2081078;28;20226;-74
2021/11/01 01:03:17;;;;;;;75.47;44.53;;;;;;;1.67;100.00;98497.63;2081932;28;20701;-74
2021/11/01 01:04:19;;;;;;;73.32;43.85;;;;;;;1.65;100.00;98494.47;2081028;28;20684;-74
2021/11/01 01:05:20;;;;;;;75.90;43.80;;;;;;;1.64;100.00;98497.31;2072953;28;20224;-74
2021/11/01 01:06:22;;;;;;;71.27;41.57;;;;;;;1.63;100.00;98493.09;2072667;28;20764;-74
2021/11/01 01:07:22;;;;;;;65.68;40.92;;;;;;;1.59;100.00;98490.19;2080633;28;20223;-75
2021/11/01 01:08:24;;;;;;;73.17;43.43;;;;;;;1.52;100.00;98496.72;2081775;28;20285;-75
2021/11/01 01:09:25;;;;;;;72.45;44.38;;;;;;;1.45;100.00;98496.91;2081894;28;20230;-75
2021/11/01 01:10:27;;;;;;;66.40;40.77;;;;;;;1.43;100.00;98491.13;2080874;28;20306;-75
2021/11/01 01:11:28;;;;;;;60.67;39.28;;;;;;;1.35;100.00;98489.72;2072862;28;20354;-74
2021/11/01 01:12:32;;;;;;;56.65;37.85;;;;;;;1.32;100.00;98486.81;2081093;28;20224;-74
2021/11/01 01:13:36;;;;;;;66.82;41.35;;;;;;;1.25;100.00;98487.03;2080972;28;20619;-74
2021/11/01 01:14:42;;;;;;;54.60;37.33;;;;;;;1.18;100.00;98485.63;2074629;28;20244;-75
2021/11/01 01:15:51;;;;;;;62.45;39.60;;;;;;;1.11;100.00;98481.38;2073445;28;20255;-74
2021/11/01 01:16:53;;;;;;;70.75;42.05;;;;;;;1.07;100.00;98485.53;2084651;28;20227;-76
2021/11/01 01:18:01;;;;;;;62.63;40.60;;;;;;;1.03;100.00;98478.41;2081683;28;20227;-74
2021/11/01 01:19:03;;;;;;;65.28;40.80;;;;;;;1.01;100.00;98478.66;2081731;28;20302;-74
2021/11/01 01:20:08;;;;;;;69.75;43.53;;;;;;;0.97;100.00;98471.53;2080972;28;20303;-74
2021/11/01 01:22:32;;;;;;;68.18;41.67;;;;;;;0.89;100.00;98470.13;2073588;28;20220;-74
2021/11/01 01:23:36;;;;;;;67.10;42.90;;;;;;;0.86;100.00;98470.59;2081059;28;20693;-74
2021/11/01 01:24:39;;;;;;;67.57;42.55;;;;;;;0.85;100.00;98476.91;2080509;28;20756;-76
2021/11/01 01:25:45;;;;;;;63.55;40.03;;;;;;;0.77;100.00;98466.84;2080992;28;20565;-75
2021/11/01 01:26:48;;;;;;;63.28;40.13;;;;;;;0.79;100.00;98470.03;2079995;28;20303;-74
2021/11/01 01:27:51;;;;;;;69.70;43.45;;;;;;;0.76;100.00;98468.66;2072650;28;20220;-75
2021/11/01 01:28:53;;;;;;;70.95;43.40;;;;;;;0.74;100.00;98464.72;2076487;28;20783;-76
2021/11/01 01:29:53;;;;;;;69.53;43.08;;;;;;;0.72;100.00;98464.19;2080802;28;20219;-74
2021/11/01 01:30:57;;;;;;;70.13;43.33;;;;;;;0.72;100.00;98464.19;2081527;28;20223;-74
2021/11/01 01:31:59;;;;;;;65.53;42.95;;;;;;;0.70;100.00;98459.19;2080779;28;20245;-74
2021/11/01 01:33:01;;;;;;;71.05;43.15;;;;;;;0.68;100.00;98463.06;2072758;28;20657;-74
2021/11/01 01:34:01;;;;;;;65.78;43.03;;;;;;;0.66;100.00;98452.03;2072849;28;20270;-74
2021/11/01 01:35:03;;;;;;;57.53;39.30;;;;;;;0.65;100.00;98463.56;2080743;28;20223;-74
2021/11/01 01:36:06;;;;;;;67.82;41.65;;;;;;;0.61;100.00;98452.78;2089020;28;20627;-74
2021/11/01 01:37:06;;;;;;;75.63;42.45;;;;;;;0.59;100.00;98464.53;2078777;28;20223;-74
2021/11/01 01:38:10;;;;;;;66.57;42.57;;;;;;;0.54;100.00;98463.47;2082782;28;20250;-75
2021/11/01 01:39:11;;;;;;;68.95;42.95;;;;;;;0.52;100.00;98459.47;2088988;28;20222;-74
2021/11/01 01:40:16;;;;;;;67.43;43.28;;;;;;;0.49;100.00;98455.50;2089156;28;20230;-74
2021/11/01 01:41:18;;;;;;;72.63;43.42;;;;;;;0.48;100.00;98455.75;2089132;28;20239;-74
2021/11/01 01:42:20;;;;;;;70.43;42.90;;;;;;;0.44;100.00;98447.59;2089080;28;20230;-74
2021/11/01 01:43:22;;;;;;;71.88;43.33;;;;;;;0.42;100.00;98446.25;2080728;28;20227;-74
2021/11/01 01:44:26;;;;;;;68.25;42.65;;;;;;;0.43;100.00;98446.00;2072327;28;20286;-74
2021/11/01 01:45:27;;;;;;;66.68;41.80;;;;;;;0.42;100.00;98447.03;2085659;28;20261;-74
2021/11/01 01:46:30;;;;;;;69.72;42.85;;;;;;;0.43;100.00;98451.25;2084868;28;20251;-74
2021/11/01 01:47:32;;;;;;;67.07;40.38;;;;;;;0.43;100.00;98445.19;2085143;28;20246;-74
2021/11/01 01:48:32;;;;;;;67.70;43.03;;;;;;;0.42;100.00;98446.25;2089593;28;20250;-74
2021/11/01 01:49:34;;;;;;;69.97;43.53;;;;;;;0.39;100.00;98437.03;2080718;28;20715;-75
2021/11/01 01:50:35;;;;;;;72.22;42.03;;;;;;;0.39;100.00;98444.91;2072488;28;20319;-74
2021/11/01 01:51:37;;;;;;;72.10;41.93;;;;;;;0.37;100.00;98440.94;2072490;28;20232;-74
2021/11/01 01:52:38;;;;;;;72.53;44.70;;;;;;;0.39;100.00;98437.03;2080244;28;20227;-75
2021/11/01 01:53:40;;;;;;;73.30;44.75;;;;;;;0.42;100.00;98441.78;2089124;28;20234;-74
2021/11/01 01:54:41;;;;;;;70.80;43.08;;;;;;;0.44;100.00;98438.94;2088834;28;20231;-74
2021/11/01 01:55:43;;;;;;;74.07;44.03;;;;;;;0.43;100.00;98437.31;2088724;28;20280;-74
2021/11/01 01:56:44;;;;;;;68.90;42.55;;;;;;;0.41;100.00;98431.53;2097079;28;20225;-74
2021/11/01 01:57:45;;;;;;;70.83;42.10;;;;;;;0.38;100.00;98432.81;2088921;28;20766;-74
2021/11/01 02:00:24;;;;;;;69.65;42.75;;;;;;;0.35;100.00;98435.94;2071200;28;20232;-75
2021/11/01 02:01:25;;;;;;;69.57;42.83;;;;;;;0.33;100.00;98424.88;2076127;28;20223;-74
2021/11/01 02:02:28;;;;;;;73.85;43.38;;;;;;;0.30;100.00;98430.63;2081321;28;20219;-74
2021/11/01 02:03:29;;;;;;;71.60;43.05;;;;;;;0.30;100.00;98429.84;2088777;28;20226;-74
2021/11/01 02:04:32;;;;;;;74.85;45.00;;;;;;;0.29;100.00;98429.06;2088769;28;20317;-74
2021/11/01 02:05:39;;;;;;;69.20;42.40;;;;;;;0.28;100.00;98424.84;2080591;28;20815;-74
2021/11/01 02:07:06;;;;;;;71.38;43.05;;;;;;;0.27;100.00;98431.94;2080902;28;20281;-74
2021/11/01 02:08:09;;;;;;;71.22;41.83;;;;;;;0.24;100.00;98423.72;2080747;28;20223;-74
2021/11/01 02:09:14;;;;;;;64.70;41.22;;;;;;;0.16;100.00;98417.06;2081306;28;20229;-74
2021/11/01 02:10:16;;;;;;;73.53;43.75;;;;;;;0.18;100.00;98427.34;2081375;28;20223;-74
2021/11/01 02:11:22;;;;;;;64.88;41.38;;;;;;;0.18;100.00;98428.16;2081333;28;20246;-74
2021/11/01 02:12:30;;;;;;;71.97;43.28;;;;;;;0.15;100.00;98422.56;2080889;28;20288;-74
2021/11/01 02:13:33;;;;;;;77.93;44.70;;;;;;;0.17;100.00;98421.28;2079769;28;20323;-74
2021/11/01 02:14:41;;;;;;;66.90;42.50;;;;;;;0.17;100.00;98430.97;2072591;28;20228;-74
2021/11/01 02:15:46;;;;;;;70.68;43.60;;;;;;;0.16;100.00;98424.16;2080468;28;20635;-74
2021/11/01 02:16:49;;;;;;;70.53;42.17;;;;;;;0.19;100.00;98426.31;2080421;28;21032;-74
2021/11/01 02:17:53;;;;;;;70.78;41.65;;;;;;;0.16;100.00;98424.94;2080481;28;20219;-74
2021/11/01 02:18:55;;;;;;;67.38;43.33;;;;;;;0.16;100.00;98418.91;2079882;28;20235;-74
2021/11/01 02:19:59;;;;;;;79.95;44.50;;;;;;;0.12;100.00;98418.63;2083830;28;20696;-74
2021/11/01 02:21:16;;;;;;;70.78;44.08;;;;;;;0.17;100.00;98423.91;2096753;28;20258;-74
2021/11/01 02:22:21;;;;;;;73.45;45.53;;;;;;;0.24;100.00;98421.09;2089345;28;20222;-73
2021/11/01 02:23:25;;;;;;;79.15;46.58;;;;;;;0.32;100.00;98423.31;2089125;28;20715;-74
2021/11/01 02:24:31;;;;;;;62.83;41.05;;;;;;;0.31;100.00;98421.72;2089458;28;20230;-74
2021/11/01 02:25:40;;;;;;;66.57;42.10;;;;;;;0.33;100.00;98426.72;2088591;28;20321;-74
2021/11/01 02:26:42;;;;;;;75.30;44.35;;;;;;;0.37;100.00;98426.00;2088506;28;20327;-74
2021/11/01 02:27:45;;;;;;;74.05;42.63;;;;;;;0.36;100.00;98419.16;2089543;28;20301;-73
2021/11/01 02:28:47;;;;;;;73.65;45.67;;;;;;;0.38;100.00;98418.91;2096988;28;20699;-73
2021/11/01 02:29:49;;;;;;;80.85;45.95;;;;;;;0.45;100.00;98422.16;2096495;28;20241;-73
2021/11/01 02:30:51;;;;;;;78.10;47.55;;;;;;;0.51;100.00;98421.94;2088873;28;20222;-73
2021/11/01 02:31:54;;;;;;;72.72;43.88;;;;;;;0.56;100.00;98419.38;2082812;28;20547;-75
2021/11/01 02:32:55;;;;;;;82.88;47.63;;;;;;;0.60;100.00;98408.38;2080378;28;20227;-74
2021/11/01 02:33:58;;;;;;;71.73;43.37;;;;;;;0.60;100.00;98413.63;2080449;28;20721;-74
2021/11/01 02:34:59;;;;;;;71.75;42.28;;;;;;;0.58;100.00;98411.25;2081114;28;20261;-74
2021/11/01 02:36:01;;;;;;;75.23;44.97;;;;;;;0.55;100.00;98412.56;2080323;28;20255;-74
2021/11/01 02:37:02;;;;;;;68.07;42.55;;;;;;;0.54;100.00;98415.44;2076217;28;20281;-74
2021/11/01 02:38:05;;;;;;;69.38;43.42;;;;;;;0.53;100.00;98406.75;2072093;28;20228;-74
2021/11/01 02:39:06;;;;;;;74.45;45.53;;;;;;;0.50;100.00;98409.84;2080472;28;20227;-74
2021/11/01 02:40:10;;;;;;;73.50;45.47;;;;;;;0.47;100.00;98414.81;2081175;28;20222;-74
2021/11/01 02:41:24;;;;;;;70.15;44.90;;;;;;;0.42;100.00;98410.28;2080693;28;20250;-74
2021/11/01 02:42:28;;;;;;;64.43;41.30;;;;;;;0.41;100.00;98411.34;2080782;28;20276;-74
2021/11/01 02:43:29;;;;;;;69.55;42.58;;;;;;;0.37;100.00;98409.47;2081141;28;20219;-74
2021/11/01 02:44:31;;;;;;;72.33;44.23;;;;;;;0.34;100.00;98405.47;2080182;28;20302;-74
2021/11/01 02:45:34;;;;;;;74.13;44.35;;;;;;;0.31;100.00;98400.72;2080395;28;20243;-74
2021/11/01 02:46:36;;;;;;;74.00;42.97;;;;;;;0.30;100.00;98404.41;2081008;28;20718;-74
2021/11/01 02:47:37;;;;;;;77.32;45.08;;;;;;;0.29;100.00;98402.81;2088041;28;20227;-75
2021/11/01 02:48:39;;;;;;;70.87;44.87;;;;;;;0.26;100.00;98404.09;2088389;28;20230;-74
2021/11/01 02:49:40;;;;;;;71.40;43.95;;;;;;;0.26;100.00;98404.09;2080411;28;20227;-74
2021/11/01 02:50:42;;;;;;;65.43;41.13;;;;;;;0.23;100.00;98404.56;2080084;28;20719;-74
2021/11/01 02:51:43;;;;;;;78.85;44.75;;;;;;;0.22;100.00;98402.19;2080175;28;20215;-74
2021/11/01 02:52:45;;;;;;;76.93;44.40;;;;;;;0.22;100.00;98412.69;2088522;28;20795;-74
2021/11/01 02:53:46;;;;;;;75.32;45.78;;;;;;;0.19;100.00;98402.69;2080306;28;20220;-74
2021/11/01 02:54:49;;;;;;;64.18;40.80;;;;;;;0.20;100.00;98410.31;2080199;28;20223;-73
2021/11/01 02:55:50;;;;;;;76.47;45.10;;;;;;;0.16;100.00;98400.56;2088083;28;20222;-74
2021/11/01 02:56:53;;;;;;;68.55;43.75;;;;;;;0.15;100.00;98401.59;2088381;28;20264;-74
2021/11/01 02:57:54;;;;;;;78.57;46.15;;;;;;;0.15;100.00;98406.84;2084247;28;20238;-73
2021/11/01 02:58:56;;;;;;;79.87;44.10;;;;;;;0.12;100.00;98404.72;2080172;28;20242;-74
2021/11/01 02:59:57;;;;;;;73.28;44.08;;;;;;;0.10;100.00;98396.31;2088454;28;20230;-75
2021/11/01 03:00:58;;;;;;;71.33;43.13;;;;;;;0.08;100.00;98398.34;2089273;28;20336;-74
2021/11/01 03:02:00;;;;;;;75.53;44.03;;;;;;;0.05;100.00;98401.47;2089073;28;20227;-74
2021/11/01 03:03:06;;;;;;;71.38;44.22;;;;;;;0.02;100.00;98396.72;2088299;28;20567;-74
2021/11/01 03:04:08;;;;;;;64.47;42.75;;;;;;;-0.03;100.00;98395.59;2080056;28;20660;-75
2021/11/01 03:05:12;;;;;;;67.05;41.55;;;;;;;-0.05;100.00;98392.44;2088263;28;20324;-74
2021/11/01 03:06:18;;;;;;;75.60;42.65;;;;;;;-0.08;100.00;98389.53;2089085;28;20229;-74
2021/11/01 03:07:19;;;;;;;71.05;42.30;;;;;;;-0.08;100.00;98392.16;2089078;28;20669;-73
2021/11/01 03:08:21;;;;;;;71.75;42.72;;;;;;;-0.12;100.00;98385.78;2089162;28;20242;-74
2021/11/01 03:09:22;;;;;;;69.20;42.00;;;;;;;-0.14;100.00;98388.66;2088722;28;20621;-75
2021/11/01 03:10:25;;;;;;;71.68;42.50;;;;;;;-0.17;100.00;98378.66;2088782;28;20618;-74
2021/11/01 03:11:26;;;;;;;63.58;40.58;;;;;;;-0.19;100.00;98380.72;2089059;28;20610;-74
2021/11/01 03:12:30;;;;;;;66.50;41.53;;;;;;;-0.21;100.00;98380.19;2089069;28;20239;-74
2021/11/01 03:13:32;;;;;;;67.63;40.50;;;;;;;-0.22;100.00;98389.06;2089178;28;20233;-74
2021/11/01 03:14:40;;;;;;;64.88;39.65;;;;;;;-0.24;100.00;98385.91;2096350;28;20222;-74
2021/11/01 03:15:42;;;;;;;64.25;39.55;;;;;;;-0.26;100.00;98389.78;2095068;28;20226;-75
2021/11/01 03:16:44;;;;;;;72.93;43.03;;;;;;;-0.29;100.00;98383.22;2088221;28;20226;-74
2021/11/01 03:17:48;;;;;;;68.30;40.13;;;;;;;-0.31;100.00;98387.91;2088373;28;20302;-74
2021/11/01 03:19:03;;;;;;;73.78;44.35;;;;;;;-0.31;100.00;98388.69;2089034;28;20218;-74
2021/11/01 03:20:08;;;;;;;76.78;45.13;;;;;;;-0.34;100.00;98383.16;2088872;28;20222;-74
2021/11/01 03:21:10;;;;;;;72.55;43.40;;;;;;;-0.31;100.00;98382.66;2088729;28;20227;-74
2021/11/01 03:22:12;;;;;;;76.63;45.45;;;;;;;-0.33;100.00;98379.50;2088914;28;20227;-74
2021/11/01 03:23:23;;;;;;;73.18;44.78;;;;;;;-0.36;100.00;98372.09;2088951;28;20229;-74
2021/11/01 03:24:23;;;;;;;65.90;42.55;;;;;;;-0.34;100.00;98370.06;2095884;28;20226;-74
2021/11/01 03:25:31;;;;;;;71.17;41.53;;;;;;;-0.37;100.00;98383.63;2096548;28;20229;-74
2021/11/01 03:26:34;;;;;;;80.97;43.53;;;;;;;-0.38;100.00;98374.19;2089107;28;20661;-74
2021/11/01 03:27:38;;;;;;;71.65;42.83;;;;;;;-0.37;100.00;98375.75;2096400;28;20226;-74
2021/11/01 03:28:39;;;;;;;66.40;41.83;;;;;;;-0.41;100.00;98364.97;2095970;28;20287;-74
2021/11/01 03:29:41;;;;;;;76.10;44.55;;;;;;;-0.39;100.00;98372.59;2088966;28;20233;-74
2021/11/01 03:30:44;;;;;;;74.22;43.20;;;;;;;-0.41;100.00;98380.69;2087787;28;20222;-74
2021/11/01 03:31:46;;;;;;;61.15;41.20;;;;;;;-0.45;100.00;98366.47;2088500;28;20726;-74
2021/11/01 03:32:49;;;;;;;65.32;42.92;;;;;;;-0.43;100.00;98369.69;2096300;28;20221;-74
2021/11/01 03:33:51;;;;;;;68.82;43.47;;;;;;;-0.45;100.00;98369.09;2088966;28;20761;-74
2021/11/01 03:34:53;;;;;;;69.72;43.65;;;;;;;-0.49;100.00;98373.25;2080517;28;20310;-75
2021/11/01 03:35:56;;;;;;;76.30;43.85;;;;;;;-0.49;100.00;98365.41;2083843;28;20318;-74
2021/11/01 03:37:04;;;;;;;76.72;45.28;;;;;;;-0.43;100.00;98368.88;2072033;28;20319;-74
2021/11/01 03:38:05;;;;;;;70.32;43.72;;;;;;;-0.41;100.00;98366.81;2072356;28;20223;-74
2021/11/01 03:39:09;;;;;;;72.72;43.03;;;;;;;-0.43;100.00;98367.06;2079932;28;20231;-74
2021/11/01 03:40:15;;;;;;;78.57;45.78;;;;;;;-0.36;100.00;98364.25;2083717;28;20226;-74
2021/11/01 03:41:17;;;;;;;81.88;46.03;;;;;;;-0.25;100.00;98365.97;2080627;28;20673;-74
2021/11/01 03:42:18;;;;;;;76.53;45.90;;;;;;;-0.14;100.00;98364.28;2079958;28;20254;-73
2021/11/01 03:43:28;;;;;;;78.00;44.60;;;;;;;-0.09;100.00;98370.38;2079816;28;20227;-74
2021/11/01 03:44:33;;;;;;;78.07;45.33;;;;;;;-0.04;100.00;98373.06;2080220;28;20678;-74
2021/11/01 03:45:36;;;;;;;78.10;45.42;;;;;;;0.00;100.00;98376.00;2080591;28;20255;-74
2021/11/01 03:46:40;;;;;;;72.70;42.53;;;;;;;-0.02;100.00;98365.72;2080191;28;20263;-76
2021/11/01 03:47:43;;;;;;;75.25;45.38;;;;;;;-0.03;100.00;98372.00;2080602;28;20301;-74
2021/11/01 03:48:44;;;;;;;78.57;45.38;;;;;;;0.00;100.00;98365.50;2080527;28;20216;-74
2021/11/01 03:49:56;;;;;;;65.10;42.80;;;;;;;-0.03;100.00;98366.75;2080092;28;20315;-74
2021/11/01 03:51:01;;;;;;;75.32;44.15;;;;;;;0.17;100.00;98368.03;2079496;28;20470;-74
2021/11/01 03:52:09;;;;;;;70.22;42.72;;;;;;;0.17;100.00;98373.28;2088184;28;20226;-74
2021/11/01 03:53:10;;;;;;;73.20;42.47;;;;;;;0.12;100.00;98373.25;2088458;28;20218;-74
2021/11/01 03:54:13;;;;;;;68.13;41.92;;;;;;;0.06;100.00;98367.13;2087934;28;20280;-74
2021/11/01 03:55:14;;;;;;;67.85;42.58;;;;;;;-0.01;100.00;98364.69;2079939;28;20231;-74
2021/11/01 03:56:16;;;;;;;69.97;42.03;;;;;;;-0.06;100.00;98364.66;2087612;28;20218;-74
2021/11/01 03:57:19;;;;;;;73.72;43.53;;;;;;;-0.11;100.00;98361.16;2079800;28;20819;-74
2021/11/01 03:58:22;;;;;;;69.95;42.72;;;;;;;-0.13;100.00;98358.00;2073937;28;20239;-74
2021/11/01 03:59:25;;;;;;;70.35;42.78;;;;;;;-0.17;100.00;98360.31;2071096;28;20232;-74
2021/11/01 04:00:30;;;;;;;65.97;41.05;;;;;;;-0.18;100.00;98356.09;2079714;28;20776;-74
2021/11/01 04:03:30;;;;;;;62.05;39.85;;;;;;;-0.25;100.00;98345.00;2078808;28;20215;-74
2021/11/01 04:04:31;;;;;;;63.63;40.25;;;;;;;-0.28;100.00;98348.09;2079897;28;20652;-74
2021/11/01 04:05:34;;;;;;;68.90;42.17;;;;;;;-0.30;100.00;98348.34;2078923;28;20239;-74
2021/11/01 04:06:38;;;;;;;71.07;41.40;;;;;;;-0.32;100.00;98345.19;2079536;28;20470;-74
2021/11/01 04:07:40;;;;;;;65.88;40.60;;;;;;;-0.37;100.00;98342.50;2080122;28;20224;-74
2021/11/01 04:08:41;;;;;;;69.28;40.97;;;;;;;-0.35;100.00;98355.34;2079609;28;20227;-73
2021/11/01 04:09:43;;;;;;;67.13;41.47;;;;;;;-0.36;100.00;98351.94;2079782;28;20254;-74
2021/11/01 04:10:44;;;;;;;65.25;41.03;;;;;;;-0.35;100.00;98355.34;2080268;28;20224;-73
2021/11/01 04:11:51;;;;;;;64.95;40.72;;;;;;;-0.38;100.00;98355.84;2080402;28;20215;-74
2021/11/01 04:12:54;;;;;;;70.30;41.55;;;;;;;-0.40;100.00;98342.97;2080010;28;20759;-74
2021/11/01 04:14:00;;;;;;;71.72;41.60;;;;;;;-0.43;100.00;98353.97;2080466;28;20285;-74
2021/11/01 04:15:04;;;;;;;72.60;41.97;;;;;;;-0.43;100.00;98361.03;2079530;28;20219;-74
2021/11/01 04:16:13;;;;;;;72.43;42.22;;;;;;;-0.42;100.00;98360.00;2079808;28;20227;-74
2021/11/01 04:17:22;;;;;;;64.95;39.92;;;;;;;-0.40;100.00;98350.84;2080061;28;20310;-74
2021/11/01 04:18:30;;;;;;;62.35;39.28;;;;;;;-0.42;100.00;98347.69;2087517;28;20260;-74
2021/11/01 04:19:42;;;;;;;68.15;41.97;;;;;;;-0.44;100.00;98341.88;2087889;28;20256;-74
2021/11/01 04:20:51;;;;;;;61.65;39.22;;;;;;;-0.49;100.00;98335.78;2087309;28;20226;-74
2021/11/01 04:21:53;;;;;;;65.43;41.38;;;;;;;-0.53;100.00;98334.66;2087694;28;20233;-74
2021/11/01 04:23:00;;;;;;;66.93;40.03;;;;;;;-0.54;100.00;98336.50;2088560;28;20680;-74
2021/11/01 04:24:01;;;;;;;73.57;41.65;;;;;;;-0.54;100.00;98333.09;2088624;28;20283;-73
2021/11/01 04:25:05;;;;;;;72.45;42.08;;;;;;;-0.52;100.00;98339.69;2088570;28;20697;-74
2021/11/01 04:26:07;;;;;;;69.32;41.72;;;;;;;-0.55;100.00;98328.88;2088528;28;20227;-73
2021/11/01 04:27:08;;;;;;;69.22;42.22;;;;;;;-0.55;100.00;98334.91;2095623;28;20222;-74
2021/11/01 04:28:10;;;;;;;68.32;40.47;;;;;;;-0.60;100.00;98329.63;2087351;28;20237;-74
2021/11/01 04:29:13;;;;;;;64.38;39.53;;;;;;;-0.64;100.00;98331.91;2087836;28;20708;-74
2021/11/01 04:30:15;;;;;;;64.70;40.42;;;;;;;-0.66;100.00;98336.59;2088584;28;20257;-74
2021/11/01 04:31:20;;;;;;;72.55;43.92;;;;;;;-0.71;100.00;98336.53;2087789;28;20223;-74
2021/11/01 04:32:29;;;;;;;67.68;41.95;;;;;;;-0.74;100.00;98326.53;2087839;28;20763;-73
2021/11/01 04:33:34;;;;;;;65.85;40.92;;;;;;;-0.72;100.00;98328.91;2087359;28;20227;-74
2021/11/01 04:34:37;;;;;;;66.78;41.88;;;;;;;-0.74;100.00;98330.97;2087791;28;20230;-73
2021/11/01 04:35:39;;;;;;;70.50;41.63;;;;;;;-0.76;100.00;98320.75;2088124;28;20250;-73
2021/11/01 04:36:41;;;;;;;70.47;41.05;;;;;;;-0.76;100.00;98328.59;2088689;28;20254;-74
2021/11/01 04:37:44;;;;;;;67.40;42.90;;;;;;;-0.78;100.00;98314.97;2081269;28;20282;-74
2021/11/01 04:38:57;;;;;;;74.20;43.20;;;;;;;-0.79;100.00;98326.44;2089417;28;20229;-74
2021/11/01 04:40:13;;;;;;;77.35;42.78;;;;;;;-0.81;100.00;98328.53;2089870;28;20655;-73
2021/11/01 04:41:20;;;;;;;65.47;40.90;;;;;;;-0.81;100.00;98325.91;2088939;28;20305;-74
2021/11/01 04:53:21;;;;;;;71.88;43.35;;;;;;;-0.80;100.00;98311.78;2081170;28;20227;-74
2021/11/01 04:54:24;;;;;;;69.45;42.67;;;;;;;-0.79;100.00;98308.13;2080754;28;20231;-74
2021/11/01 04:55:25;;;;;;;64.63;41.50;;;;;;;-0.79;100.00;98308.13;2080901;28;20235;-74
2021/11/01 04:56:27;;;;;;;72.40;43.00;;;;;;;-0.80;100.00;98308.38;2081958;28;20281;-74
2021/11/01 04:57:28;;;;;;;64.15;41.45;;;;;;;-0.84;100.00;98300.22;2082016;28;20646;-74
2021/11/01 04:58:29;;;;;;;71.50;43.03;;;;;;;-0.83;100.00;98301.00;2081183;28;20246;-74
2021/11/01 04:59:31;;;;;;;66.15;42.85;;;;;;;-0.86;100.00;98300.44;2081181;28;20235;-74
2021/11/01 05:00:34;;;;;;;69.82;43.55;;;;;;;-0.85;100.00;98309.09;2081921;28;20722;-74
2021/11/01 05:01:38;;;;;;;70.03;42.67;;;;;;;-0.84;100.00;98305.44;2081061;28;20250;-74
2021/11/01 05:02:43;;;;;;;70.88;42.55;;;;;;;-0.86;100.00;98297.03;2079088;28;20226;-74
2021/11/01 05:03:48;;;;;;;69.05;42.63;;;;;;;-0.86;100.00;98295.22;2081282;28;20668;-74
2021/11/01 05:04:50;;;;;;;72.82;42.90;;;;;;;-0.86;100.00;98297.03;2081416;28;20298;-74